KHB102 UWUU-UUDD
Flight info
| Callsign | KHB102 |
|---|---|
| Flight time | 1h 50m |
| Altitude | 34000 |
| Route | TILMU3M TILMU N985 ORTIM L158 APTAR T787 URAGO URAGO3P |
| Aircraft | B38M/M-SDE1FGHILORVWXY/HB1 |
Departure
| Time | 2026-05-07 10:14 |
|---|---|
| Airport | Ufa International Airport (UWUU) |
Arrival
| Time | 2026-05-07 12:04 |
|---|---|
| Airport | Domodedovo International Airport (UUDD) |
| Time | Latitude | Longitude | Altitude | Speed | Heading |
|---|---|---|---|---|---|
| 2026-05-07 09:38 | 54.56463 | 55.88332 | 452 ft | 0 kts | 61° |
| 2026-05-07 09:58 | 54.56457 | 55.88315 | 452 ft | 4 kts | 60° |
| 2026-05-07 09:58 | 54.56444 | 55.88275 | 452 ft | 4 kts | 57° |
| 2026-05-07 09:59 | 54.56433 | 55.88250 | 452 ft | 2 kts | 37° |
| 2026-05-07 09:59 | 54.56423 | 55.88243 | 452 ft | 2 kts | 348° |
| 2026-05-07 09:59 | 54.56412 | 55.88250 | 452 ft | 2 kts | 330° |
| 2026-05-07 09:59 | 54.56405 | 55.88257 | 452 ft | 0 kts | 329° |
| 2026-05-07 10:04 | 54.56407 | 55.88255 | 452 ft | 0 kts | 329° |
| 2026-05-07 10:05 | 54.56408 | 55.88255 | 452 ft | 0 kts | 329° |
| 2026-05-07 10:05 | 54.56408 | 55.88254 | 452 ft | 0 kts | 329° |
| 2026-05-07 10:06 | 54.56412 | 55.88249 | 452 ft | 3 kts | 320° |
| 2026-05-07 10:06 | 54.56422 | 55.88180 | 452 ft | 8 kts | 256° |
| 2026-05-07 10:06 | 54.56394 | 55.88088 | 452 ft | 10 kts | 241° |
| 2026-05-07 10:06 | 54.56359 | 55.87979 | 452 ft | 11 kts | 240° |
| 2026-05-07 10:07 | 54.56318 | 55.87856 | 453 ft | 12 kts | 240° |
| 2026-05-07 10:07 | 54.56273 | 55.87720 | 452 ft | 14 kts | 240° |
| 2026-05-07 10:07 | 54.56220 | 55.87560 | 452 ft | 16 kts | 240° |
| 2026-05-07 10:07 | 54.56161 | 55.87384 | 452 ft | 18 kts | 240° |
| 2026-05-07 10:08 | 54.56096 | 55.87192 | 452 ft | 19 kts | 240° |
| 2026-05-07 10:08 | 54.56027 | 55.86985 | 452 ft | 21 kts | 240° |
| 2026-05-07 10:08 | 54.55956 | 55.86760 | 452 ft | 22 kts | 242° |
| 2026-05-07 10:08 | 54.55882 | 55.86523 | 453 ft | 20 kts | 242° |
| 2026-05-07 10:09 | 54.55848 | 55.86377 | 453 ft | 12 kts | 276° |
| 2026-05-07 10:09 | 54.55909 | 55.86273 | 454 ft | 13 kts | 331° |
| 2026-05-07 10:09 | 54.55999 | 55.86190 | 455 ft | 17 kts | 332° |
| 2026-05-07 10:09 | 54.56115 | 55.86081 | 456 ft | 21 kts | 331° |
| 2026-05-07 10:10 | 54.56247 | 55.85956 | 454 ft | 23 kts | 331° |
| 2026-05-07 10:10 | 54.56385 | 55.85824 | 453 ft | 23 kts | 330° |
| 2026-05-07 10:10 | 54.56518 | 55.85695 | 455 ft | 22 kts | 330° |
| 2026-05-07 10:10 | 54.56653 | 55.85566 | 456 ft | 22 kts | 330° |
| 2026-05-07 10:11 | 54.56790 | 55.85435 | 456 ft | 22 kts | 331° |
| 2026-05-07 10:11 | 54.56924 | 55.85306 | 454 ft | 23 kts | 331° |
| 2026-05-07 10:11 | 54.57054 | 55.85180 | 453 ft | 21 kts | 330° |
| 2026-05-07 10:11 | 54.57180 | 55.85078 | 452 ft | 18 kts | 348° |
| 2026-05-07 10:12 | 54.57280 | 55.85066 | 454 ft | 11 kts | 351° |
| 2026-05-07 10:12 | 54.57319 | 55.85011 | 454 ft | 6 kts | 282° |
| 2026-05-07 10:12 | 54.57296 | 55.84966 | 454 ft | 6 kts | 183° |
| 2026-05-07 10:12 | 54.57269 | 55.84982 | 454 ft | 0 kts | 152° |
| 2026-05-07 10:13 | 54.57266 | 55.84985 | 454 ft | 3 kts | 152° |
| 2026-05-07 10:13 | 54.57024 | 55.85221 | 452 ft | 81 kts | 150° |
| 2026-05-07 10:13 | 54.56309 | 55.85915 | 454 ft | 152 kts | 150° |
| 2026-05-07 10:13 | 54.55231 | 55.86924 | 721 ft | 186 kts | 150° |
| 2026-05-07 10:14 | 54.54108 | 55.88035 | 1796 ft | 179 kts | 149° |
| 2026-05-07 10:14 | 54.53044 | 55.89141 | 2670 ft | 184 kts | 143° |
| 2026-05-07 10:14 | 54.52279 | 55.90938 | 3207 ft | 196 kts | 103° |
| 2026-05-07 10:14 | 54.52455 | 55.93295 | 3723 ft | 208 kts | 59° |
| 2026-05-07 10:15 | 54.53484 | 55.95102 | 4417 ft | 217 kts | 32° |
| 2026-05-07 10:15 | 54.54796 | 55.96516 | 5223 ft | 228 kts | 36° |
| 2026-05-07 10:15 | 54.55921 | 55.98463 | 6132 ft | 230 kts | 51° |
| 2026-05-07 10:15 | 54.56934 | 56.00670 | 6931 ft | 240 kts | 51° |
| 2026-05-07 10:16 | 54.57991 | 56.02908 | 7762 ft | 243 kts | 50° |
| 2026-05-07 10:16 | 54.59062 | 56.05127 | 8678 ft | 243 kts | 49° |
| 2026-05-07 10:16 | 54.60229 | 56.07250 | 9503 ft | 246 kts | 36° |
| 2026-05-07 10:16 | 54.61824 | 56.08325 | 10147 ft | 255 kts | 2° |
| 2026-05-07 10:17 | 54.63611 | 56.07652 | 10747 ft | 268 kts | 336° |
| 2026-05-07 10:17 | 54.65238 | 56.06109 | 11479 ft | 274 kts | 330° |
| 2026-05-07 10:17 | 54.66893 | 56.04405 | 12227 ft | 280 kts | 330° |
| 2026-05-07 10:17 | 54.68619 | 56.02680 | 12759 ft | 295 kts | 331° |
| 2026-05-07 10:18 | 54.70468 | 56.00864 | 13124 ft | 315 kts | 332° |
| 2026-05-07 10:18 | 54.72439 | 55.98945 | 13460 ft | 335 kts | 332° |
| 2026-05-07 10:18 | 54.74537 | 55.96913 | 13747 ft | 355 kts | 332° |
| 2026-05-07 10:18 | 54.76585 | 55.94396 | 14110 ft | 369 kts | 315° |
| 2026-05-07 10:19 | 54.78051 | 55.90698 | 14674 ft | 377 kts | 294° |
| 2026-05-07 10:19 | 54.78696 | 55.86298 | 15390 ft | 381 kts | 275° |
| 2026-05-07 10:19 | 54.78832 | 55.81677 | 16018 ft | 386 kts | 274° |
| 2026-05-07 10:19 | 54.78973 | 55.77006 | 16691 ft | 390 kts | 273° |
| 2026-05-07 10:20 | 54.79104 | 55.72287 | 17335 ft | 394 kts | 273° |
| 2026-05-07 10:20 | 54.79232 | 55.67524 | 17992 ft | 398 kts | 273° |
| 2026-05-07 10:20 | 54.79358 | 55.62713 | 18555 ft | 401 kts | 273° |
| 2026-05-07 10:20 | 54.79484 | 55.57861 | 19103 ft | 404 kts | 273° |
| 2026-05-07 10:21 | 54.79607 | 55.52974 | 19662 ft | 407 kts | 273° |
| 2026-05-07 10:21 | 54.79730 | 55.48048 | 20202 ft | 411 kts | 273° |
| 2026-05-07 10:21 | 54.79852 | 55.43084 | 20732 ft | 414 kts | 273° |
| 2026-05-07 10:21 | 54.79973 | 55.38079 | 21277 ft | 417 kts | 273° |
| 2026-05-07 10:22 | 54.80052 | 55.34749 | 21618 ft | 419 kts | 272° |
| 2026-05-07 10:22 | 54.80171 | 55.29678 | 22134 ft | 422 kts | 273° |
| 2026-05-07 10:22 | 54.80288 | 55.24577 | 22643 ft | 426 kts | 272° |
| 2026-05-07 10:22 | 54.80405 | 55.19426 | 23128 ft | 429 kts | 272° |
| 2026-05-07 10:23 | 54.80519 | 55.14245 | 23600 ft | 432 kts | 272° |
| 2026-05-07 10:23 | 54.80633 | 55.09032 | 24015 ft | 434 kts | 272° |
| 2026-05-07 10:23 | 54.80781 | 55.02072 | 24598 ft | 437 kts | 272° |
| 2026-05-07 10:23 | 54.80855 | 54.98517 | 24883 ft | 438 kts | 272° |
| 2026-05-07 10:24 | 54.80963 | 54.93224 | 25302 ft | 441 kts | 272° |
| 2026-05-07 10:24 | 54.81070 | 54.87903 | 25720 ft | 442 kts | 272° |
| 2026-05-07 10:24 | 54.81174 | 54.82561 | 26132 ft | 444 kts | 272° |
| 2026-05-07 10:24 | 54.81276 | 54.77191 | 26529 ft | 447 kts | 272° |
| 2026-05-07 10:25 | 54.81378 | 54.71799 | 26925 ft | 448 kts | 272° |
| 2026-05-07 10:25 | 54.81476 | 54.66387 | 27315 ft | 450 kts | 272° |
| 2026-05-07 10:25 | 54.81573 | 54.60945 | 27696 ft | 452 kts | 272° |
| 2026-05-07 10:25 | 54.81668 | 54.55486 | 28072 ft | 454 kts | 272° |
| 2026-05-07 10:26 | 54.81760 | 54.50002 | 28437 ft | 456 kts | 272° |
| 2026-05-07 10:26 | 54.81851 | 54.44476 | 28799 ft | 458 kts | 272° |
| 2026-05-07 10:26 | 54.81939 | 54.38944 | 29149 ft | 460 kts | 272° |
| 2026-05-07 10:26 | 54.82026 | 54.33379 | 29486 ft | 463 kts | 272° |
| 2026-05-07 10:27 | 54.82112 | 54.27794 | 29826 ft | 464 kts | 272° |
| 2026-05-07 10:27 | 54.82196 | 54.22196 | 30215 ft | 464 kts | 271° |
| 2026-05-07 10:27 | 54.82507 | 54.16656 | 30625 ft | 462 kts | 284° |
| 2026-05-07 10:27 | 54.83434 | 54.11336 | 31044 ft | 460 kts | 285° |
| 2026-05-07 10:28 | 54.84254 | 54.05973 | 31378 ft | 460 kts | 285° |
| 2026-05-07 10:28 | 54.85060 | 54.00615 | 31793 ft | 458 kts | 284° |
| 2026-05-07 10:28 | 54.85853 | 53.95341 | 32192 ft | 457 kts | 284° |
| 2026-05-07 10:28 | 54.86651 | 53.90012 | 32587 ft | 456 kts | 284° |
| 2026-05-07 10:29 | 54.87447 | 53.84686 | 32985 ft | 455 kts | 284° |
| 2026-05-07 10:29 | 54.88235 | 53.79385 | 33391 ft | 453 kts | 284° |
| 2026-05-07 10:29 | 54.89021 | 53.74087 | 33778 ft | 452 kts | 284° |
| 2026-05-07 10:30 | 54.90591 | 53.63509 | 33910 ft | 450 kts | 284° |
| 2026-05-07 10:30 | 54.91384 | 53.58262 | 33913 ft | 449 kts | 284° |
| 2026-05-07 10:30 | 54.92960 | 53.47764 | 33910 ft | 449 kts | 284° |
| 2026-05-07 10:31 | 54.94527 | 53.37249 | 33906 ft | 448 kts | 284° |
| 2026-05-07 10:31 | 54.96080 | 53.26750 | 33913 ft | 448 kts | 284° |
| 2026-05-07 10:32 | 54.97617 | 53.16253 | 33914 ft | 448 kts | 284° |
| 2026-05-07 10:32 | 54.99146 | 53.05742 | 33914 ft | 448 kts | 284° |
| 2026-05-07 10:33 | 55.00664 | 52.95234 | 33920 ft | 448 kts | 284° |
| 2026-05-07 10:33 | 55.02176 | 52.84705 | 33915 ft | 447 kts | 283° |
| 2026-05-07 10:34 | 55.03679 | 52.74172 | 33921 ft | 447 kts | 283° |
| 2026-05-07 10:34 | 55.05170 | 52.63658 | 33927 ft | 447 kts | 283° |
| 2026-05-07 10:35 | 55.06644 | 52.53193 | 33931 ft | 447 kts | 283° |
| 2026-05-07 10:35 | 55.08118 | 52.42657 | 33930 ft | 447 kts | 283° |
| 2026-05-07 10:36 | 55.09582 | 52.32113 | 33934 ft | 447 kts | 283° |
| 2026-05-07 10:36 | 55.11037 | 52.21569 | 33935 ft | 447 kts | 283° |
| 2026-05-07 10:37 | 55.12482 | 52.11021 | 33933 ft | 446 kts | 283° |
| 2026-05-07 10:37 | 55.13919 | 52.00457 | 33937 ft | 446 kts | 283° |
| 2026-05-07 10:38 | 55.15347 | 51.89888 | 33943 ft | 447 kts | 283° |
| 2026-05-07 10:38 | 55.16765 | 51.79308 | 33944 ft | 446 kts | 283° |
| 2026-05-07 10:39 | 55.18173 | 51.68736 | 33943 ft | 446 kts | 283° |
| 2026-05-07 10:39 | 55.19570 | 51.58166 | 33946 ft | 446 kts | 282° |
| 2026-05-07 10:40 | 55.20948 | 51.47665 | 33945 ft | 445 kts | 282° |
| 2026-05-07 10:40 | 55.22327 | 51.37079 | 33950 ft | 445 kts | 282° |
| 2026-05-07 10:41 | 55.23696 | 51.26499 | 33945 ft | 445 kts | 282° |
| 2026-05-07 10:41 | 55.25056 | 51.15910 | 33951 ft | 445 kts | 282° |
| 2026-05-07 10:42 | 55.26408 | 51.05327 | 33953 ft | 445 kts | 282° |
| 2026-05-07 10:42 | 55.27673 | 50.94699 | 33958 ft | 445 kts | 281° |
| 2026-05-07 10:43 | 55.28914 | 50.84082 | 33958 ft | 444 kts | 281° |
| 2026-05-07 10:43 | 55.30152 | 50.73449 | 33959 ft | 444 kts | 281° |
| 2026-05-07 10:44 | 55.31378 | 50.62828 | 33963 ft | 444 kts | 281° |
| 2026-05-07 10:44 | 55.32593 | 50.52209 | 33963 ft | 444 kts | 281° |
| 2026-05-07 10:45 | 55.33800 | 50.41584 | 33964 ft | 443 kts | 281° |
| 2026-05-07 10:45 | 55.34996 | 50.30958 | 33965 ft | 443 kts | 281° |
| 2026-05-07 10:46 | 55.36184 | 50.20318 | 33970 ft | 443 kts | 281° |
| 2026-05-07 10:46 | 55.37363 | 50.09674 | 33971 ft | 443 kts | 281° |
| 2026-05-07 10:47 | 55.38526 | 49.99102 | 33974 ft | 443 kts | 280° |
| 2026-05-07 10:47 | 55.39093 | 49.88323 | 33973 ft | 443 kts | 275° |
| 2026-05-07 10:48 | 55.39633 | 49.77526 | 33980 ft | 443 kts | 275° |
| 2026-05-07 10:48 | 55.40188 | 49.66736 | 33981 ft | 442 kts | 275° |
| 2026-05-07 10:49 | 55.40736 | 49.55967 | 33989 ft | 442 kts | 275° |
| 2026-05-07 10:49 | 55.41275 | 49.45175 | 33985 ft | 442 kts | 275° |
| 2026-05-07 10:50 | 55.41795 | 49.34377 | 33988 ft | 442 kts | 274° |
| 2026-05-07 10:50 | 55.42282 | 49.23594 | 33987 ft | 442 kts | 274° |
| 2026-05-07 10:51 | 55.42762 | 49.12799 | 33988 ft | 442 kts | 274° |
| 2026-05-07 10:51 | 55.43233 | 49.02009 | 33986 ft | 442 kts | 274° |
| 2026-05-07 10:52 | 55.43694 | 48.91225 | 33984 ft | 442 kts | 274° |
| 2026-05-07 10:52 | 55.44142 | 48.80508 | 33987 ft | 442 kts | 274° |
| 2026-05-07 10:53 | 55.44585 | 48.69708 | 33990 ft | 442 kts | 274° |
| 2026-05-07 10:53 | 55.45018 | 48.58916 | 33992 ft | 442 kts | 274° |
| 2026-05-07 10:54 | 55.45442 | 48.48117 | 33989 ft | 442 kts | 274° |
| 2026-05-07 10:54 | 55.45857 | 48.37322 | 33992 ft | 441 kts | 274° |
| 2026-05-07 10:55 | 55.46261 | 48.26536 | 33988 ft | 441 kts | 274° |
| 2026-05-07 10:55 | 55.46657 | 48.15738 | 33991 ft | 441 kts | 274° |
| 2026-05-07 10:56 | 55.47042 | 48.04951 | 33995 ft | 441 kts | 274° |
| 2026-05-07 10:56 | 55.47418 | 47.94162 | 33995 ft | 441 kts | 273° |
| 2026-05-07 10:57 | 55.47785 | 47.83377 | 33995 ft | 441 kts | 273° |
| 2026-05-07 10:57 | 55.48142 | 47.72594 | 33995 ft | 440 kts | 273° |
| 2026-05-07 10:58 | 55.48489 | 47.61821 | 33996 ft | 440 kts | 273° |
| 2026-05-07 10:58 | 55.48826 | 47.51061 | 33996 ft | 440 kts | 273° |
| 2026-05-07 10:59 | 55.49154 | 47.40291 | 34004 ft | 440 kts | 273° |
| 2026-05-07 10:59 | 55.49472 | 47.29524 | 33999 ft | 439 kts | 273° |
| 2026-05-07 11:00 | 55.49782 | 47.18824 | 33999 ft | 439 kts | 273° |
| 2026-05-07 11:00 | 55.50081 | 47.08069 | 34005 ft | 439 kts | 272° |
| 2026-05-07 11:01 | 55.50373 | 46.97309 | 34006 ft | 439 kts | 272° |
| 2026-05-07 11:01 | 55.50657 | 46.86548 | 34004 ft | 439 kts | 272° |
| 2026-05-07 11:02 | 55.50931 | 46.75782 | 34000 ft | 439 kts | 272° |
| 2026-05-07 11:02 | 55.51195 | 46.65015 | 34003 ft | 439 kts | 272° |
| 2026-05-07 11:03 | 55.51451 | 46.54255 | 33997 ft | 439 kts | 272° |
| 2026-05-07 11:03 | 55.51748 | 46.43501 | 33995 ft | 439 kts | 274° |
| 2026-05-07 11:04 | 55.52186 | 46.32761 | 33996 ft | 439 kts | 274° |
| 2026-05-07 11:04 | 55.52598 | 46.22026 | 33993 ft | 438 kts | 274° |
| 2026-05-07 11:05 | 55.52999 | 46.11291 | 33989 ft | 438 kts | 274° |
| 2026-05-07 11:05 | 55.53390 | 46.00561 | 33986 ft | 438 kts | 274° |
| 2026-05-07 11:06 | 55.53772 | 45.89831 | 33986 ft | 438 kts | 273° |
| 2026-05-07 11:06 | 55.54142 | 45.79173 | 33991 ft | 438 kts | 273° |
| 2026-05-07 11:07 | 55.54505 | 45.68448 | 33987 ft | 437 kts | 273° |
| 2026-05-07 11:07 | 55.54859 | 45.57715 | 33987 ft | 438 kts | 273° |
| 2026-05-07 11:08 | 55.55203 | 45.46998 | 33977 ft | 437 kts | 273° |
| 2026-05-07 11:08 | 55.55537 | 45.36278 | 33975 ft | 437 kts | 273° |
| 2026-05-07 11:09 | 55.55862 | 45.25562 | 33977 ft | 437 kts | 273° |
| 2026-05-07 11:09 | 55.56178 | 45.14840 | 33976 ft | 437 kts | 273° |
| 2026-05-07 11:10 | 55.56433 | 45.05938 | 33975 ft | 437 kts | 272° |
| 2026-05-07 11:10 | 55.56734 | 44.95220 | 33973 ft | 437 kts | 272° |
| 2026-05-07 11:11 | 55.57025 | 44.84492 | 33965 ft | 437 kts | 272° |
| 2026-05-07 11:11 | 55.57310 | 44.73779 | 33965 ft | 436 kts | 272° |
| 2026-05-07 11:12 | 55.57586 | 44.63079 | 33963 ft | 435 kts | 272° |
| 2026-05-07 11:12 | 55.57851 | 44.52392 | 33964 ft | 435 kts | 272° |
| 2026-05-07 11:13 | 55.58108 | 44.41708 | 33956 ft | 435 kts | 272° |
| 2026-05-07 11:13 | 55.58355 | 44.31033 | 33951 ft | 435 kts | 272° |
| 2026-05-07 11:14 | 55.58593 | 44.20351 | 33950 ft | 434 kts | 272° |
| 2026-05-07 11:14 | 55.58820 | 44.09752 | 33942 ft | 434 kts | 272° |
| 2026-05-07 11:15 | 55.59039 | 43.99094 | 33941 ft | 434 kts | 272° |
| 2026-05-07 11:15 | 55.59250 | 43.88416 | 33945 ft | 434 kts | 272° |
| 2026-05-07 11:16 | 55.59427 | 43.77757 | 33933 ft | 433 kts | 270° |
| 2026-05-07 11:16 | 55.59452 | 43.67108 | 33936 ft | 433 kts | 270° |
| 2026-05-07 11:17 | 55.59483 | 43.56449 | 33939 ft | 433 kts | 270° |
| 2026-05-07 11:17 | 55.59507 | 43.45806 | 33931 ft | 433 kts | 270° |
| 2026-05-07 11:18 | 55.59522 | 43.35176 | 33927 ft | 432 kts | 270° |
| 2026-05-07 11:18 | 55.59528 | 43.24559 | 33929 ft | 432 kts | 270° |
| 2026-05-07 11:19 | 55.59524 | 43.14009 | 33922 ft | 432 kts | 270° |
| 2026-05-07 11:19 | 55.59512 | 43.03400 | 33929 ft | 431 kts | 270° |
| 2026-05-07 11:20 | 55.59490 | 42.92803 | 33921 ft | 431 kts | 270° |
| 2026-05-07 11:20 | 55.59459 | 42.82194 | 33920 ft | 431 kts | 269° |
| 2026-05-07 11:21 | 55.59419 | 42.71618 | 33915 ft | 431 kts | 269° |
| 2026-05-07 11:21 | 55.59370 | 42.61039 | 33915 ft | 431 kts | 269° |
| 2026-05-07 11:22 | 55.59312 | 42.50435 | 33911 ft | 430 kts | 269° |
| 2026-05-07 11:22 | 55.59245 | 42.39856 | 33910 ft | 430 kts | 269° |
| 2026-05-07 11:23 | 55.59169 | 42.29285 | 33912 ft | 430 kts | 269° |
| 2026-05-07 11:23 | 55.59084 | 42.18780 | 33908 ft | 430 kts | 269° |
| 2026-05-07 11:24 | 55.58989 | 42.08200 | 33909 ft | 430 kts | 269° |
| 2026-05-07 11:24 | 55.58887 | 41.97628 | 33903 ft | 430 kts | 269° |
| 2026-05-07 11:25 | 55.58778 | 41.87048 | 33905 ft | 430 kts | 269° |
| 2026-05-07 11:25 | 55.58649 | 41.76489 | 33902 ft | 430 kts | 268° |
| 2026-05-07 11:26 | 55.58514 | 41.65930 | 33897 ft | 430 kts | 268° |
| 2026-05-07 11:26 | 55.58371 | 41.55370 | 33900 ft | 429 kts | 268° |
| 2026-05-07 11:27 | 55.58219 | 41.44819 | 33898 ft | 429 kts | 268° |
| 2026-05-07 11:27 | 55.58139 | 41.39569 | 33575 ft | 425 kts | 268° |
| 2026-05-07 11:27 | 55.58058 | 41.34355 | 32875 ft | 423 kts | 268° |
| 2026-05-07 11:28 | 55.57976 | 41.29159 | 32205 ft | 422 kts | 268° |
| 2026-05-07 11:28 | 55.57890 | 41.24039 | 31398 ft | 424 kts | 268° |
| 2026-05-07 11:28 | 55.57800 | 41.18754 | 30623 ft | 425 kts | 268° |
| 2026-05-07 11:28 | 55.57710 | 41.13634 | 29999 ft | 423 kts | 268° |
| 2026-05-07 11:29 | 55.57615 | 41.08407 | 29080 ft | 426 kts | 268° |
| 2026-05-07 11:29 | 55.57518 | 41.03143 | 28234 ft | 432 kts | 268° |
| 2026-05-07 11:29 | 55.57418 | 40.97801 | 27627 ft | 436 kts | 268° |
| 2026-05-07 11:29 | 55.57314 | 40.92431 | 26989 ft | 437 kts | 268° |
| 2026-05-07 11:30 | 55.57207 | 40.87003 | 26348 ft | 434 kts | 268° |
| 2026-05-07 11:30 | 55.57101 | 40.81784 | 25721 ft | 429 kts | 268° |
| 2026-05-07 11:30 | 55.56993 | 40.76529 | 25091 ft | 426 kts | 268° |
| 2026-05-07 11:30 | 55.56883 | 40.71323 | 24474 ft | 423 kts | 268° |
| 2026-05-07 11:31 | 55.56773 | 40.66158 | 23860 ft | 420 kts | 268° |
| 2026-05-07 11:31 | 55.56660 | 40.61017 | 23208 ft | 418 kts | 268° |
| 2026-05-07 11:31 | 55.56546 | 40.55905 | 22523 ft | 415 kts | 268° |
| 2026-05-07 11:31 | 55.56432 | 40.50842 | 21916 ft | 410 kts | 267° |
| 2026-05-07 11:32 | 55.56174 | 40.40846 | 20617 ft | 405 kts | 267° |
| 2026-05-07 11:32 | 55.56039 | 40.35898 | 20074 ft | 401 kts | 267° |
| 2026-05-07 11:32 | 55.55904 | 40.30996 | 19517 ft | 397 kts | 267° |
| 2026-05-07 11:33 | 55.55769 | 40.26145 | 19060 ft | 392 kts | 267° |
| 2026-05-07 11:33 | 55.55635 | 40.21404 | 18814 ft | 381 kts | 267° |
| 2026-05-07 11:33 | 55.55502 | 40.16795 | 18587 ft | 371 kts | 267° |
| 2026-05-07 11:33 | 55.55372 | 40.12300 | 18387 ft | 362 kts | 267° |
| 2026-05-07 11:34 | 55.55243 | 40.07922 | 18213 ft | 352 kts | 267° |
| 2026-05-07 11:34 | 55.55117 | 40.03666 | 18022 ft | 342 kts | 267° |
| 2026-05-07 11:34 | 55.55026 | 39.99525 | 17755 ft | 335 kts | 272° |
| 2026-05-07 11:34 | 55.55291 | 39.95456 | 17434 ft | 331 kts | 276° |
| 2026-05-07 11:35 | 55.55528 | 39.91508 | 17140 ft | 325 kts | 275° |
| 2026-05-07 11:35 | 55.55749 | 39.87563 | 16830 ft | 321 kts | 275° |
| 2026-05-07 11:35 | 55.55957 | 39.83642 | 16524 ft | 321 kts | 274° |
| 2026-05-07 11:35 | 55.56160 | 39.79715 | 16206 ft | 321 kts | 274° |
| 2026-05-07 11:36 | 55.56358 | 39.75795 | 15896 ft | 319 kts | 274° |
| 2026-05-07 11:36 | 55.56552 | 39.71902 | 15585 ft | 318 kts | 274° |
| 2026-05-07 11:36 | 55.56744 | 39.68017 | 15278 ft | 316 kts | 274° |
| 2026-05-07 11:36 | 55.56934 | 39.64152 | 14969 ft | 315 kts | 274° |
| 2026-05-07 11:37 | 55.57121 | 39.60309 | 14658 ft | 312 kts | 274° |
| 2026-05-07 11:37 | 55.57305 | 39.56510 | 14362 ft | 309 kts | 274° |
| 2026-05-07 11:37 | 55.57474 | 39.52733 | 14065 ft | 307 kts | 270° |
| 2026-05-07 11:37 | 55.57231 | 39.49006 | 13813 ft | 307 kts | 259° |
| 2026-05-07 11:38 | 55.56861 | 39.45281 | 13584 ft | 307 kts | 260° |
| 2026-05-07 11:38 | 55.56493 | 39.41566 | 13346 ft | 306 kts | 260° |
| 2026-05-07 11:38 | 55.56124 | 39.37863 | 13113 ft | 305 kts | 259° |
| 2026-05-07 11:38 | 55.55761 | 39.34226 | 12893 ft | 304 kts | 259° |
| 2026-05-07 11:39 | 55.55392 | 39.30557 | 12665 ft | 303 kts | 259° |
| 2026-05-07 11:39 | 55.55026 | 39.26901 | 12461 ft | 302 kts | 259° |
| 2026-05-07 11:39 | 55.54657 | 39.23252 | 12237 ft | 300 kts | 259° |
| 2026-05-07 11:39 | 55.54289 | 39.19626 | 12025 ft | 300 kts | 259° |
| 2026-05-07 11:40 | 55.53922 | 39.16015 | 11798 ft | 298 kts | 259° |
| 2026-05-07 11:40 | 55.53555 | 39.12414 | 11585 ft | 297 kts | 259° |
| 2026-05-07 11:40 | 55.53189 | 39.08833 | 11376 ft | 296 kts | 259° |
| 2026-05-07 11:40 | 55.52824 | 39.05271 | 11153 ft | 293 kts | 259° |
| 2026-05-07 11:41 | 55.52464 | 39.01770 | 10901 ft | 286 kts | 259° |
| 2026-05-07 11:41 | 55.52112 | 38.98359 | 10737 ft | 278 kts | 259° |
| 2026-05-07 11:41 | 55.51751 | 38.95059 | 10586 ft | 270 kts | 258° |
| 2026-05-07 11:41 | 55.51396 | 38.91851 | 10419 ft | 263 kts | 258° |
| 2026-05-07 11:42 | 55.51049 | 38.88727 | 10258 ft | 259 kts | 258° |
| 2026-05-07 11:42 | 55.50702 | 38.85608 | 10088 ft | 258 kts | 258° |
| 2026-05-07 11:42 | 55.50184 | 38.82600 | 9917 ft | 257 kts | 240° |
| 2026-05-07 11:42 | 55.49027 | 38.80214 | 9828 ft | 259 kts | 224° |
| 2026-05-07 11:43 | 55.47690 | 38.78062 | 9742 ft | 260 kts | 224° |
| 2026-05-07 11:43 | 55.46345 | 38.75947 | 9641 ft | 259 kts | 224° |
| 2026-05-07 11:43 | 55.44990 | 38.73852 | 9538 ft | 260 kts | 223° |
| 2026-05-07 11:43 | 55.43625 | 38.71766 | 9425 ft | 259 kts | 223° |
| 2026-05-07 11:44 | 55.42257 | 38.69691 | 9347 ft | 260 kts | 223° |
| 2026-05-07 11:44 | 55.40887 | 38.67623 | 9241 ft | 259 kts | 223° |
| 2026-05-07 11:44 | 55.39518 | 38.65563 | 9146 ft | 259 kts | 223° |
| 2026-05-07 11:44 | 55.38146 | 38.63506 | 9050 ft | 259 kts | 223° |
| 2026-05-07 11:45 | 55.36779 | 38.61459 | 8970 ft | 258 kts | 222° |
| 2026-05-07 11:45 | 55.35430 | 38.59439 | 8874 ft | 258 kts | 223° |
| 2026-05-07 11:45 | 55.34056 | 38.57386 | 8778 ft | 259 kts | 223° |
| 2026-05-07 11:45 | 55.32686 | 38.55339 | 8666 ft | 258 kts | 223° |
| 2026-05-07 11:46 | 55.31324 | 38.53307 | 8591 ft | 257 kts | 223° |
| 2026-05-07 11:46 | 55.29962 | 38.51279 | 8478 ft | 256 kts | 223° |
| 2026-05-07 11:46 | 55.28599 | 38.49249 | 8389 ft | 258 kts | 223° |
| 2026-05-07 11:46 | 55.27235 | 38.47221 | 8286 ft | 256 kts | 223° |
| 2026-05-07 11:47 | 55.25877 | 38.45201 | 8199 ft | 256 kts | 222° |
| 2026-05-07 11:47 | 55.24519 | 38.43184 | 8103 ft | 256 kts | 222° |
| 2026-05-07 11:47 | 55.23129 | 38.41242 | 8003 ft | 257 kts | 212° |
| 2026-05-07 11:47 | 55.21424 | 38.40286 | 7998 ft | 263 kts | 188° |
| 2026-05-07 11:48 | 55.19591 | 38.40635 | 7970 ft | 269 kts | 168° |
| 2026-05-07 11:48 | 55.17779 | 38.41537 | 7989 ft | 272 kts | 168° |
| 2026-05-07 11:48 | 55.15962 | 38.42462 | 7962 ft | 272 kts | 168° |
| 2026-05-07 11:48 | 55.14173 | 38.43386 | 7991 ft | 272 kts | 167° |
| 2026-05-07 11:49 | 55.12360 | 38.44338 | 7997 ft | 272 kts | 167° |
| 2026-05-07 11:49 | 55.10550 | 38.45291 | 7959 ft | 271 kts | 167° |
| 2026-05-07 11:49 | 55.08778 | 38.46229 | 7980 ft | 259 kts | 167° |
| 2026-05-07 11:49 | 55.07072 | 38.46706 | 7887 ft | 241 kts | 191° |
| 2026-05-07 11:50 | 55.05549 | 38.45784 | 7810 ft | 230 kts | 211° |
| 2026-05-07 11:50 | 55.04097 | 38.44520 | 7754 ft | 235 kts | 210° |
| 2026-05-07 11:50 | 55.02635 | 38.43235 | 7694 ft | 235 kts | 210° |
| 2026-05-07 11:50 | 55.01176 | 38.41935 | 7607 ft | 235 kts | 210° |
| 2026-05-07 11:51 | 54.99720 | 38.40619 | 7538 ft | 236 kts | 212° |
| 2026-05-07 11:51 | 54.98512 | 38.38781 | 7389 ft | 230 kts | 233° |
| 2026-05-07 11:51 | 54.97511 | 38.36622 | 7317 ft | 229 kts | 232° |
| 2026-05-07 11:51 | 54.96505 | 38.34463 | 7225 ft | 230 kts | 232° |
| 2026-05-07 11:52 | 54.95499 | 38.32288 | 7151 ft | 231 kts | 232° |
| 2026-05-07 11:52 | 54.94496 | 38.30103 | 7073 ft | 230 kts | 233° |
| 2026-05-07 11:52 | 54.93766 | 38.27673 | 6959 ft | 228 kts | 253° |
| 2026-05-07 11:52 | 54.93326 | 38.25023 | 6892 ft | 228 kts | 253° |
| 2026-05-07 11:53 | 54.92884 | 38.22369 | 6793 ft | 228 kts | 254° |
| 2026-05-07 11:53 | 54.92453 | 38.19753 | 6690 ft | 227 kts | 254° |
| 2026-05-07 11:53 | 54.92022 | 38.17112 | 6610 ft | 227 kts | 254° |
| 2026-05-07 11:53 | 54.91827 | 38.14417 | 6539 ft | 226 kts | 273° |
| 2026-05-07 11:54 | 54.91996 | 38.11707 | 6444 ft | 226 kts | 275° |
| 2026-05-07 11:54 | 54.92172 | 38.08990 | 6350 ft | 227 kts | 275° |
| 2026-05-07 11:54 | 54.92458 | 38.06284 | 6263 ft | 229 kts | 290° |
| 2026-05-07 11:54 | 54.93411 | 38.04068 | 6174 ft | 235 kts | 319° |
| 2026-05-07 11:55 | 54.94928 | 38.02927 | 6037 ft | 244 kts | 348° |
| 2026-05-07 11:55 | 54.96633 | 38.03239 | 5927 ft | 252 kts | 15° |
| 2026-05-07 11:55 | 54.98299 | 38.04248 | 5879 ft | 255 kts | 15° |
| 2026-05-07 11:55 | 54.99975 | 38.05221 | 5761 ft | 253 kts | 14° |
| 2026-05-07 11:56 | 55.01648 | 38.06196 | 5696 ft | 254 kts | 14° |
| 2026-05-07 11:56 | 55.03324 | 38.07172 | 5560 ft | 254 kts | 14° |
| 2026-05-07 11:56 | 55.04998 | 38.08157 | 5461 ft | 254 kts | 15° |
| 2026-05-07 11:56 | 55.06672 | 38.09143 | 5336 ft | 253 kts | 15° |
| 2026-05-07 11:57 | 55.08335 | 38.10125 | 5255 ft | 251 kts | 15° |
| 2026-05-07 11:57 | 55.09982 | 38.11097 | 5179 ft | 246 kts | 15° |
| 2026-05-07 11:57 | 55.11582 | 38.12004 | 5075 ft | 237 kts | 8° |
| 2026-05-07 11:57 | 55.13169 | 38.11987 | 4903 ft | 222 kts | 346° |
| 2026-05-07 11:58 | 55.14659 | 38.11578 | 4885 ft | 211 kts | 346° |
| 2026-05-07 11:58 | 55.16052 | 38.11184 | 4767 ft | 200 kts | 345° |
| 2026-05-07 11:58 | 55.17382 | 38.10795 | 4697 ft | 188 kts | 344° |
| 2026-05-07 11:58 | 55.18660 | 38.10409 | 4573 ft | 187 kts | 344° |
| 2026-05-07 11:59 | 55.19952 | 38.10017 | 4574 ft | 189 kts | 345° |
| 2026-05-07 11:59 | 55.21251 | 38.09615 | 4475 ft | 190 kts | 345° |
| 2026-05-07 11:59 | 55.22554 | 38.09200 | 4215 ft | 190 kts | 345° |
| 2026-05-07 11:59 | 55.23833 | 38.08732 | 4029 ft | 186 kts | 337° |
| 2026-05-07 12:00 | 55.24995 | 38.07808 | 3788 ft | 181 kts | 322° |
| 2026-05-07 12:00 | 55.26014 | 38.06543 | 3564 ft | 178 kts | 319° |
| 2026-05-07 12:00 | 55.27023 | 38.05282 | 3387 ft | 175 kts | 320° |
| 2026-05-07 12:00 | 55.28012 | 38.04105 | 3165 ft | 169 kts | 321° |
| 2026-05-07 12:01 | 55.28980 | 38.02947 | 2989 ft | 167 kts | 319° |
| 2026-05-07 12:01 | 55.29914 | 38.01829 | 2803 ft | 159 kts | 319° |
| 2026-05-07 12:01 | 55.30817 | 38.00744 | 2546 ft | 156 kts | 319° |
| 2026-05-07 12:01 | 55.31708 | 37.99677 | 2376 ft | 156 kts | 318° |
| 2026-05-07 12:02 | 55.32600 | 37.98615 | 2202 ft | 153 kts | 319° |
| 2026-05-07 12:02 | 55.33477 | 37.97602 | 1973 ft | 149 kts | 319° |
| 2026-05-07 12:02 | 55.34323 | 37.96569 | 1770 ft | 147 kts | 317° |
| 2026-05-07 12:02 | 55.35154 | 37.95568 | 1569 ft | 145 kts | 317° |
| 2026-05-07 12:03 | 55.35994 | 37.94535 | 1395 ft | 150 kts | 319° |
| 2026-05-07 12:03 | 55.36863 | 37.93475 | 1213 ft | 151 kts | 321° |
| 2026-05-07 12:03 | 55.37746 | 37.92455 | 1017 ft | 151 kts | 321° |
| 2026-05-07 12:03 | 55.38602 | 37.91429 | 795 ft | 148 kts | 320° |
| 2026-05-07 12:04 | 55.39437 | 37.90421 | 590 ft | 146 kts | 324° |
| 2026-05-07 12:04 | 55.40225 | 37.89449 | 563 ft | 118 kts | 324° |
| 2026-05-07 12:04 | 55.40704 | 37.88879 | 575 ft | 55 kts | 326° |
| 2026-05-07 12:04 | 55.40959 | 37.88578 | 581 ft | 39 kts | 327° |
| 2026-05-07 12:05 | 55.41101 | 37.88435 | 580 ft | 31 kts | 336° |
| 2026-05-07 12:05 | 55.41273 | 37.88357 | 584 ft | 19 kts | 354° |
| 2026-05-07 12:05 | 55.41366 | 37.88358 | 585 ft | 12 kts | 27° |
| 2026-05-07 12:05 | 55.41353 | 37.88492 | 582 ft | 15 kts | 146° |
| 2026-05-07 12:06 | 55.41257 | 37.88605 | 581 ft | 18 kts | 146° |
| 2026-05-07 12:06 | 55.41146 | 37.88737 | 580 ft | 20 kts | 146° |
| 2026-05-07 12:06 | 55.41027 | 37.88879 | 579 ft | 22 kts | 146° |
| 2026-05-07 12:06 | 55.40914 | 37.89015 | 578 ft | 20 kts | 146° |
| 2026-05-07 12:07 | 55.40819 | 37.89138 | 579 ft | 16 kts | 133° |
| 2026-05-07 12:07 | 55.40786 | 37.89325 | 573 ft | 16 kts | 82° |
| 2026-05-07 12:07 | 55.40830 | 37.89479 | 573 ft | 13 kts | 52° |
| 2026-05-07 12:07 | 55.40894 | 37.89607 | 578 ft | 15 kts | 54° |
| 2026-05-07 12:08 | 55.40959 | 37.89774 | 574 ft | 18 kts | 56° |
| 2026-05-07 12:08 | 55.41021 | 37.89936 | 571 ft | 14 kts | 57° |
| 2026-05-07 12:08 | 55.41072 | 37.90050 | 570 ft | 9 kts | 35° |
| 2026-05-07 12:08 | 55.41129 | 37.90081 | 575 ft | 5 kts | 13° |
| 2026-05-07 12:09 | 55.41156 | 37.90092 | 578 ft | 2 kts | 13° |
| 2026-05-07 12:09 | 55.41158 | 37.90093 | 578 ft | 0 kts | 13° |